PWSweather.com
Personal Weather Stations
Station Observations

YeovilGB

Lat: 50.949, Lon: -2.627

Elevation: 70

Station Type: Vantage Pro

http://www.yeovil-weather.me.uk/

High Low Average
Temperature 42.2°F5.7°C 35.6°F2.0°C 39.0°F3.9°C
Dew Point 35.4°F1.9°C 29.9°F-1.2°C 32.7°F0.4°C
Winds 9.2 mph 14.8 kmh Calm Calm 3.0 mph W4.8 kmh W
Wind Gusts 21.9 mph35.2 kmh -- 7.0 mph11.3 kmh
Humidity 87% 66% 78%
Pressure 30.18 in1022.0 mb 29.98 in1015.2 mb -
Precipitation 0.01 in0.3 mm - -
Hour Temp Dew Point Humidity Winds Wind Gusts Pressure Precip Precip Rate Daily Precip Total
12:00 AM 40.2°F4.6°C 34.8°F1.6°C 81% 9.2 mph WSW14.8 kmh WSW 12.7 mph20.4 kmh 30.00 in1015.9 mb - 0.01 in0.3 mm 0.01 in0.3 mm
12:10 AM 39.6°F4.2°C 34.9°F1.6°C 83% 2.3 mph SW3.7 kmh SW 5.8 mph9.3 kmh 30.00 in1015.9 mb - 0.00 in0.0 mm 0.01 in0.3 mm
12:20 AM 39.3°F4.1°C 34.6°F1.4°C 83% 2.3 mph SW3.7 kmh SW 9.2 mph14.8 kmh 30.00 in1015.9 mb - 0.00 in0.0 mm 0.01 in0.3 mm
12:30 AM 39.2°F4.0°C 34.5°F1.4°C 83% 4.6 mph SW7.4 kmh SW 10.4 mph16.7 kmh 30.00 in1015.9 mb - 0.00 in0.0 mm 0.01 in0.3 mm
12:40 AM 39.1°F3.9°C 34.4°F1.3°C 83% 5.8 mph SW9.3 kmh SW 10.4 mph16.7 kmh 30.00 in1015.9 mb - 0.00 in0.0 mm 0.01 in0.3 mm
12:50 AM 38.9°F3.8°C 34.5°F1.4°C 84% 3.5 mph SSW5.6 kmh SSW 5.8 mph9.3 kmh 30.00 in1015.9 mb - 0.00 in0.0 mm 0.01 in0.3 mm
01:00 AM 38.8°F3.8°C 34.4°F1.3°C 84% 2.3 mph SW3.7 kmh SW 5.8 mph9.3 kmh 30.00 in1015.9 mb - 0.00 in0.0 mm 0.01 in0.3 mm
01:10 AM 38.5°F3.6°C 34.3°F1.3°C 85% 2.3 mph SW3.7 kmh SW 11.5 mph18.5 kmh 29.99 in1015.6 mb - 0.00 in0.0 mm 0.01 in0.3 mm
01:20 AM 38.4°F3.6°C 34.3°F1.3°C 85% 1.2 mph SW1.9 kmh SW 5.8 mph9.3 kmh 30.00 in1015.9 mb - 0.00 in0.0 mm 0.01 in0.3 mm
01:30 AM 38.4°F3.6°C 34.3°F1.3°C 85% 2.3 mph SW3.7 kmh SW 5.8 mph9.3 kmh 30.00 in1015.9 mb - 0.00 in0.0 mm 0.01 in0.3 mm
01:40 AM 38.3°F3.5°C 34.2°F1.2°C 85% 3.5 mph WSW5.6 kmh WSW 8.1 mph13.0 kmh 30.00 in1015.9 mb - 0.00 in0.0 mm 0.01 in0.3 mm
01:50 AM 38.3°F3.5°C 33.9°F1.1°C 84% 4.6 mph SW7.4 kmh SW 6.9 mph11.1 kmh 30.00 in1015.9 mb - 0.00 in0.0 mm 0.01 in0.3 mm
02:00 AM 38.2°F3.4°C 33.2°F0.7°C 82% 5.8 mph WSW9.3 kmh WSW 8.1 mph13.0 kmh 30.00 in1015.9 mb - 0.00 in0.0 mm 0.01 in0.3 mm
02:10 AM 38.3°F3.5°C 32.3°F0.2°C 79% Calm Calm 1.2 mph1.9 kmh 30.00 in1015.9 mb - 0.00 in0.0 mm 0.01 in0.3 mm
02:20 AM 38.2°F3.4°C 31.9°F-0.1°C 78% 2.3 mph SW3.7 kmh SW 9.2 mph14.8 kmh 30.00 in1015.9 mb - 0.00 in0.0 mm 0.01 in0.3 mm
02:30 AM 38.2°F3.4°C 31.3°F-0.4°C 76% 3.5 mph WSW5.6 kmh WSW 13.8 mph22.2 kmh 30.00 in1015.9 mb - 0.00 in0.0 mm 0.01 in0.3 mm
02:40 AM 38.4°F3.6°C 31.2°F-0.4°C 75% 1.2 mph SW1.9 kmh SW 8.1 mph13.0 kmh 30.00 in1015.9 mb - 0.00 in0.0 mm 0.01 in0.3 mm
02:50 AM 38.6°F3.7°C 31.0°F-0.6°C 74% 3.5 mph WSW5.6 kmh WSW 12.7 mph20.4 kmh 30.00 in1015.9 mb - 0.00 in0.0 mm 0.01 in0.3 mm
03:00 AM 38.7°F3.7°C 30.8°F-0.7°C 73% 5.8 mph WSW9.3 kmh WSW 6.9 mph11.1 kmh 29.99 in1015.6 mb - 0.00 in0.0 mm 0.01 in0.3 mm
03:10 AM 38.8°F3.8°C 30.9°F-0.6°C 73% 6.9 mph SW11.1 kmh SW 10.4 mph16.7 kmh 29.99 in1015.6 mb - 0.00 in0.0 mm 0.01 in0.3 mm
03:20 AM 38.8°F3.8°C 30.9°F-0.6°C 73% 6.9 mph SW11.1 kmh SW 11.5 mph18.5 kmh 30.00 in1015.9 mb - 0.00 in0.0 mm 0.01 in0.3 mm
03:30 AM 38.8°F3.8°C 30.9°F-0.6°C 73% 6.9 mph W11.1 kmh W 9.2 mph14.8 kmh 29.99 in1015.6 mb - 0.00 in0.0 mm 0.01 in0.3 mm
03:40 AM 38.8°F3.8°C 31.2°F-0.4°C 74% 2.3 mph W3.7 kmh W 9.2 mph14.8 kmh 29.99 in1015.6 mb - 0.00 in0.0 mm 0.01 in0.3 mm
03:50 AM 38.8°F3.8°C 31.2°F-0.4°C 74% 1.2 mph WSW1.9 kmh WSW 2.3 mph3.7 kmh 29.98 in1015.2 mb - 0.00 in0.0 mm 0.01 in0.3 mm
04:00 AM 38.8°F3.8°C 31.6°F-0.2°C 75% 4.6 mph WSW7.4 kmh WSW 8.1 mph13.0 kmh 29.98 in1015.2 mb - 0.00 in0.0 mm 0.01 in0.3 mm
04:10 AM 38.7°F3.7°C 31.8°F-0.1°C 76% Calm Calm 4.6 mph7.4 kmh 29.98 in1015.2 mb - 0.00 in0.0 mm 0.01 in0.3 mm
04:20 AM 38.5°F3.6°C 31.6°F-0.2°C 76% 1.2 mph WSW1.9 kmh WSW 4.6 mph7.4 kmh 29.99 in1015.6 mb - 0.00 in0.0 mm 0.01 in0.3 mm
04:30 AM 38.6°F3.7°C 31.7°F-0.2°C 76% Calm Calm 3.5 mph5.6 kmh 29.99 in1015.6 mb - 0.00 in0.0 mm 0.01 in0.3 mm
04:40 AM 38.5°F3.6°C 31.6°F-0.2°C 76% Calm Calm -- 29.99 in1015.6 mb - 0.00 in0.0 mm 0.01 in0.3 mm
04:50 AM 38.6°F3.7°C 31.7°F-0.2°C 76% 1.2 mph SW1.9 kmh SW 2.3 mph3.7 kmh 29.99 in1015.6 mb - 0.00 in0.0 mm 0.01 in0.3 mm
05:00 AM 38.7°F3.7°C 31.8°F-0.1°C 76% 4.6 mph SW7.4 kmh SW 8.1 mph13.0 kmh 30.00 in1015.9 mb - 0.00 in0.0 mm 0.01 in0.3 mm
05:10 AM 39.1°F3.9°C 32.5°F0.3°C 77% 2.3 mph WSW3.7 kmh WSW 6.9 mph11.1 kmh 30.00 in1015.9 mb - 0.00 in0.0 mm 0.01 in0.3 mm
05:20 AM 39.2°F4.0°C 32.9°F0.5°C 78% 1.2 mph WNW1.9 kmh WNW 5.8 mph9.3 kmh 30.01 in1016.3 mb - 0.00 in0.0 mm 0.01 in0.3 mm
05:30 AM 39.3°F4.1°C 33.3°F0.7°C 79% 2.3 mph WNW3.7 kmh WNW 3.5 mph5.6 kmh 30.01 in1016.3 mb - 0.00 in0.0 mm 0.01 in0.3 mm
05:40 AM 39.4°F4.1°C 33.4°F0.8°C 79% 1.2 mph WSW1.9 kmh WSW 4.6 mph7.4 kmh 30.01 in1016.3 mb - 0.00 in0.0 mm 0.01 in0.3 mm
05:50 AM 39.5°F4.2°C 33.8°F1.0°C 80% 4.6 mph SW7.4 kmh SW 8.1 mph13.0 kmh 30.02 in1016.6 mb - 0.00 in0.0 mm 0.01 in0.3 mm
06:00 AM 39.5°F4.2°C 33.8°F1.0°C 80% Calm Calm 2.3 mph3.7 kmh 30.02 in1016.6 mb - 0.00 in0.0 mm 0.01 in0.3 mm
06:10 AM 39.5°F4.2°C 34.2°F1.2°C 81% 3.5 mph WNW5.6 kmh WNW 6.9 mph11.1 kmh 30.02 in1016.6 mb - 0.00 in0.0 mm 0.01 in0.3 mm
06:20 AM 39.7°F4.3°C 34.1°F1.2°C 80% 6.9 mph WNW11.1 kmh WNW 11.5 mph18.5 kmh 30.02 in1016.6 mb - 0.00 in0.0 mm 0.01 in0.3 mm
06:30 AM 39.9°F4.4°C 34.2°F1.2°C 80% 2.3 mph WNW3.7 kmh WNW 9.2 mph14.8 kmh 30.02 in1016.6 mb - 0.00 in0.0 mm 0.01 in0.3 mm
06:40 AM 40.0°F4.4°C 34.3°F1.3°C 80% 4.6 mph WNW7.4 kmh WNW 13.8 mph22.2 kmh 30.03 in1016.9 mb - 0.00 in0.0 mm 0.01 in0.3 mm
06:50 AM 40.1°F4.5°C 34.2°F1.2°C 79% 1.2 mph NW1.9 kmh NW 9.2 mph14.8 kmh 30.04 in1017.3 mb - 0.00 in0.0 mm 0.01 in0.3 mm
07:00 AM 40.2°F4.6°C 34.5°F1.4°C 80% 2.3 mph NW3.7 kmh NW 6.9 mph11.1 kmh 30.04 in1017.3 mb - 0.00 in0.0 mm 0.01 in0.3 mm
07:10 AM 40.1°F4.5°C 34.4°F1.3°C 80% 3.5 mph NW5.6 kmh NW 13.8 mph22.2 kmh 30.04 in1017.3 mb - 0.00 in0.0 mm 0.01 in0.3 mm
07:20 AM 39.9°F4.4°C 34.5°F1.4°C 81% 2.3 mph NW3.7 kmh NW 4.6 mph7.4 kmh 30.04 in1017.3 mb - 0.00 in0.0 mm 0.01 in0.3 mm
07:30 AM 39.6°F4.2°C 34.2°F1.2°C 81% 3.5 mph NW5.6 kmh NW 11.5 mph18.5 kmh 30.05 in1017.6 mb - 0.00 in0.0 mm 0.01 in0.3 mm
07:40 AM 39.4°F4.1°C 34.0°F1.1°C 81% 1.2 mph W1.9 kmh W 2.3 mph3.7 kmh 30.05 in1017.6 mb - 0.00 in0.0 mm 0.01 in0.3 mm
07:50 AM 39.2°F4.0°C 33.9°F1.1°C 81% 2.3 mph WNW3.7 kmh WNW 10.4 mph16.7 kmh 30.05 in1017.6 mb - 0.00 in0.0 mm 0.01 in0.3 mm
08:00 AM 39.2°F4.0°C 34.2°F1.2°C 82% 2.3 mph NW3.7 kmh NW 4.6 mph7.4 kmh 30.06 in1017.9 mb - 0.00 in0.0 mm 0.01 in0.3 mm
08:10 AM 39.1°F3.9°C 34.4°F1.3°C 83% 1.2 mph NW1.9 kmh NW 8.1 mph13.0 kmh 30.07 in1018.3 mb - 0.00 in0.0 mm 0.01 in0.3 mm
08:20 AM 39.2°F4.0°C 34.2°F1.2°C 82% 1.2 mph W1.9 kmh W 4.6 mph7.4 kmh 30.07 in1018.3 mb - 0.00 in0.0 mm 0.01 in0.3 mm
08:30 AM 39.1°F3.9°C 33.8°F1.0°C 81% 2.3 mph WNW3.7 kmh WNW 4.6 mph7.4 kmh 30.08 in1018.6 mb - 0.00 in0.0 mm 0.01 in0.3 mm
08:40 AM 38.9°F3.8°C 33.9°F1.1°C 82% 2.3 mph W3.7 kmh W 5.8 mph9.3 kmh 30.08 in1018.6 mb - 0.00 in0.0 mm 0.01 in0.3 mm
08:50 AM 38.6°F3.7°C 33.6°F0.9°C 82% 4.6 mph NW7.4 kmh NW 6.9 mph11.1 kmh 30.09 in1019.0 mb - 0.00 in0.0 mm 0.01 in0.3 mm
09:00 AM 38.8°F3.8°C 34.1°F1.2°C 83% 3.5 mph NW5.6 kmh NW 9.2 mph14.8 kmh 30.09 in1019.0 mb - 0.00 in0.0 mm 0.01 in0.3 mm
09:10 AM 39.1°F3.9°C 34.1°F1.2°C 82% 2.3 mph W3.7 kmh W 6.9 mph11.1 kmh 30.10 in1019.3 mb - 0.00 in0.0 mm 0.01 in0.3 mm
09:20 AM 39.1°F3.9°C 33.8°F1.0°C 81% 5.8 mph NW9.3 kmh NW 15.0 mph24.1 kmh 30.10 in1019.3 mb - 0.00 in0.0 mm 0.01 in0.3 mm
09:30 AM 39.1°F3.9°C 33.5°F0.8°C 80% 4.6 mph NW7.4 kmh NW 10.4 mph16.7 kmh 30.11 in1019.6 mb - 0.00 in0.0 mm 0.01 in0.3 mm
09:40 AM 39.2°F4.0°C 33.2°F0.7°C 79% 4.6 mph NW7.4 kmh NW 9.2 mph14.8 kmh 30.11 in1019.6 mb - 0.00 in0.0 mm 0.01 in0.3 mm
09:50 AM 38.9°F3.8°C 32.9°F0.5°C 79% 1.2 mph NW1.9 kmh NW 6.9 mph11.1 kmh 30.12 in1020.0 mb - 0.00 in0.0 mm 0.01 in0.3 mm
10:00 AM 39.0°F3.9°C 33.3°F0.7°C 80% 2.3 mph WSW3.7 kmh WSW 5.8 mph9.3 kmh 30.12 in1020.0 mb - 0.00 in0.0 mm 0.01 in0.3 mm
10:10 AM 39.5°F4.2°C 33.5°F0.8°C 79% 1.2 mph WNW1.9 kmh WNW 8.1 mph13.0 kmh 30.12 in1020.0 mb - 0.00 in0.0 mm 0.01 in0.3 mm
10:20 AM 40.1°F4.5°C 34.5°F1.4°C 80% Calm Calm 1.2 mph1.9 kmh 30.12 in1020.0 mb - 0.00 in0.0 mm 0.01 in0.3 mm
10:30 AM 41.1°F5.1°C 35.4°F1.9°C 80% 2.3 mph W3.7 kmh W 6.9 mph11.1 kmh 30.12 in1020.0 mb - 0.00 in0.0 mm 0.01 in0.3 mm
10:40 AM 40.9°F4.9°C 34.6°F1.4°C 78% 4.6 mph NW7.4 kmh NW 11.5 mph18.5 kmh 30.12 in1020.0 mb - 0.00 in0.0 mm 0.01 in0.3 mm
10:50 AM 41.3°F5.2°C 34.3°F1.3°C 76% 4.6 mph W7.4 kmh W 8.1 mph13.0 kmh 30.12 in1020.0 mb - 0.00 in0.0 mm 0.01 in0.3 mm
11:00 AM 41.2°F5.1°C 33.5°F0.8°C 74% 2.3 mph NW3.7 kmh NW 8.1 mph13.0 kmh 30.12 in1020.0 mb - 0.00 in0.0 mm 0.01 in0.3 mm
11:10 AM 41.8°F5.4°C 34.1°F1.2°C 74% 4.6 mph WNW7.4 kmh WNW 8.1 mph13.0 kmh 30.12 in1020.0 mb - 0.00 in0.0 mm 0.01 in0.3 mm
11:20 AM 41.7°F5.4°C 33.6°F0.9°C 73% 5.8 mph NW9.3 kmh NW 16.1 mph25.9 kmh 30.12 in1020.0 mb - 0.00 in0.0 mm 0.01 in0.3 mm
11:30 AM 41.3°F5.2°C 33.0°F0.6°C 72% 5.8 mph NW9.3 kmh NW 9.2 mph14.8 kmh 30.12 in1020.0 mb - 0.00 in0.0 mm 0.01 in0.3 mm
11:40 AM 41.5°F5.3°C 33.5°F0.8°C 73% 5.8 mph NW9.3 kmh NW 18.4 mph29.6 kmh 30.12 in1020.0 mb - 0.00 in0.0 mm 0.01 in0.3 mm
11:50 AM 42.0°F5.6°C 33.2°F0.7°C 71% 5.8 mph NW9.3 kmh NW 11.5 mph18.5 kmh 30.12 in1020.0 mb - 0.00 in0.0 mm 0.01 in0.3 mm
12:00 PM 41.2°F5.1°C 32.5°F0.3°C 71% 6.9 mph NW11.1 kmh NW 10.4 mph16.7 kmh 30.12 in1020.0 mb - 0.00 in0.0 mm 0.01 in0.3 mm
12:10 PM 40.8°F4.9°C 32.4°F0.2°C 72% 4.6 mph NW7.4 kmh NW 10.4 mph16.7 kmh 30.12 in1020.0 mb - 0.00 in0.0 mm 0.01 in0.3 mm
12:20 PM 40.6°F4.8°C 32.6°F0.3°C 73% 3.5 mph N5.6 kmh N 4.6 mph7.4 kmh 30.12 in1020.0 mb - 0.00 in0.0 mm 0.01 in0.3 mm
12:30 PM 40.5°F4.7°C 32.2°F0.1°C 72% Calm Calm -- 30.12 in1020.0 mb - 0.00 in0.0 mm 0.01 in0.3 mm
12:40 PM 40.7°F4.8°C 32.4°F0.2°C 72% 4.6 mph NW7.4 kmh NW 11.5 mph18.5 kmh 30.12 in1020.0 mb - 0.00 in0.0 mm 0.01 in0.3 mm
12:50 PM 41.0°F5.0°C 32.3°F0.2°C 71% 6.9 mph NW11.1 kmh NW 11.5 mph18.5 kmh 30.12 in1020.0 mb - 0.00 in0.0 mm 0.01 in0.3 mm
01:00 PM 42.1°F5.6°C 32.3°F0.2°C 68% 2.3 mph WNW3.7 kmh WNW 11.5 mph18.5 kmh 30.12 in1020.0 mb - 0.00 in0.0 mm 0.01 in0.3 mm
01:10 PM 42.2°F5.7°C 31.6°F-0.2°C 66% Calm Calm 9.2 mph14.8 kmh 30.12 in1020.0 mb - 0.00 in0.0 mm 0.01 in0.3 mm
01:20 PM 41.5°F5.3°C 31.7°F-0.2°C 68% 3.5 mph W5.6 kmh W 6.9 mph11.1 kmh 30.12 in1020.0 mb - 0.00 in0.0 mm 0.01 in0.3 mm
01:30 PM 41.2°F5.1°C 31.8°F-0.1°C 69% Calm Calm 4.6 mph7.4 kmh 30.12 in1020.0 mb - 0.00 in0.0 mm 0.01 in0.3 mm
01:40 PM 41.2°F5.1°C 31.4°F-0.3°C 68% 4.6 mph WSW7.4 kmh WSW 10.4 mph16.7 kmh 30.12 in1020.0 mb - 0.00 in0.0 mm 0.01 in0.3 mm
01:50 PM 41.3°F5.2°C 31.5°F-0.3°C 68% 6.9 mph NW11.1 kmh NW 21.9 mph35.2 kmh 30.13 in1020.3 mb - 0.00 in0.0 mm 0.01 in0.3 mm
02:00 PM 41.0°F5.0°C 32.0°F0.0°C 70% 2.3 mph NW3.7 kmh NW 5.8 mph9.3 kmh 30.13 in1020.3 mb - 0.00 in0.0 mm 0.01 in0.3 mm
02:10 PM 40.8°F4.9°C 32.5°F0.3°C 72% 1.2 mph NNW1.9 kmh NNW 2.3 mph3.7 kmh 30.13 in1020.3 mb - 0.00 in0.0 mm 0.01 in0.3 mm
02:20 PM 41.0°F5.0°C 32.7°F0.4°C 72% 3.5 mph NW5.6 kmh NW 11.5 mph18.5 kmh 30.14 in1020.7 mb - 0.00 in0.0 mm 0.01 in0.3 mm
02:30 PM 40.8°F4.9°C 32.5°F0.3°C 72% 3.5 mph NW5.6 kmh NW 4.6 mph7.4 kmh 30.14 in1020.7 mb - 0.00 in0.0 mm 0.01 in0.3 mm
02:40 PM 40.5°F4.7°C 32.2°F0.1°C 72% 1.2 mph NNW1.9 kmh NNW 5.8 mph9.3 kmh 30.14 in1020.7 mb - 0.00 in0.0 mm 0.01 in0.3 mm
02:50 PM 40.2°F4.6°C 32.2°F0.1°C 73% 1.2 mph NW1.9 kmh NW 1.2 mph1.9 kmh 30.14 in1020.7 mb - 0.00 in0.0 mm 0.01 in0.3 mm
03:00 PM 40.0°F4.4°C 32.4°F0.2°C 74% 1.2 mph NW1.9 kmh NW 3.5 mph5.6 kmh 30.14 in1020.7 mb - 0.00 in0.0 mm 0.01 in0.3 mm
03:10 PM 39.8°F4.3°C 32.2°F0.1°C 74% 2.3 mph WSW3.7 kmh WSW 5.8 mph9.3 kmh 30.14 in1020.7 mb - 0.00 in0.0 mm 0.01 in0.3 mm
03:20 PM 39.6°F4.2°C 32.0°F0.0°C 74% Calm Calm 5.8 mph9.3 kmh 30.14 in1020.7 mb - 0.00 in0.0 mm 0.01 in0.3 mm
03:30 PM 39.5°F4.2°C 32.2°F0.1°C 75% 2.3 mph NW3.7 kmh NW 6.9 mph11.1 kmh 30.14 in1020.7 mb - 0.01 in0.3 mm 0.01 in0.3 mm
03:40 PM 39.3°F4.1°C 32.0°F0.0°C 75% Calm Calm 2.3 mph3.7 kmh 30.14 in1020.7 mb - 0.01 in0.3 mm 0.01 in0.3 mm
03:50 PM 39.1°F3.9°C 31.5°F-0.3°C 74% Calm Calm 2.3 mph3.7 kmh 30.14 in1020.7 mb - 0.00 in0.0 mm 0.01 in0.3 mm
04:00 PM 38.9°F3.8°C 31.3°F-0.4°C 74% 2.3 mph W3.7 kmh W 8.1 mph13.0 kmh 30.14 in1020.7 mb - 0.00 in0.0 mm 0.01 in0.3 mm
04:10 PM 38.8°F3.8°C 31.2°F-0.4°C 74% Calm Calm 1.2 mph1.9 kmh 30.14 in1020.7 mb - 0.00 in0.0 mm 0.01 in0.3 mm
04:20 PM 38.6°F3.7°C 31.0°F-0.6°C 74% 2.3 mph NW3.7 kmh NW 10.4 mph16.7 kmh 30.14 in1020.7 mb - 0.00 in0.0 mm 0.01 in0.3 mm
04:30 PM 38.3°F3.5°C 30.4°F-0.9°C 73% 1.2 mph WNW1.9 kmh WNW 1.2 mph1.9 kmh 30.14 in1020.7 mb - 0.00 in0.0 mm 0.01 in0.3 mm
04:40 PM 38.2°F3.4°C 30.0°F-1.1°C 72% Calm Calm 2.3 mph3.7 kmh 30.15 in1021.0 mb - 0.00 in0.0 mm 0.01 in0.3 mm
04:50 PM 38.1°F3.4°C 29.9°F-1.2°C 72% 2.3 mph WSW3.7 kmh WSW 3.5 mph5.6 kmh 30.15 in1021.0 mb - 0.00 in0.0 mm 0.01 in0.3 mm
05:00 PM 38.1°F3.4°C 30.2°F-1.0°C 73% 2.3 mph WSW3.7 kmh WSW 5.8 mph9.3 kmh 30.15 in1021.0 mb - 0.00 in0.0 mm 0.01 in0.3 mm
05:10 PM 38.3°F3.5°C 30.4°F-0.9°C 73% 2.3 mph WSW3.7 kmh WSW 5.8 mph9.3 kmh 30.15 in1021.0 mb - 0.00 in0.0 mm 0.01 in0.3 mm
05:20 PM 38.2°F3.4°C 30.7°F-0.7°C 74% Calm Calm 1.2 mph1.9 kmh 30.16 in1021.3 mb - 0.00 in0.0 mm 0.01 in0.3 mm
05:30 PM 38.3°F3.5°C 31.1°F-0.5°C 75% 2.3 mph NW3.7 kmh NW 6.9 mph11.1 kmh 30.16 in1021.3 mb - 0.00 in0.0 mm 0.01 in0.3 mm
05:40 PM 38.3°F3.5°C 31.1°F-0.5°C 75% Calm Calm 1.2 mph1.9 kmh 30.16 in1021.3 mb - 0.00 in0.0 mm 0.01 in0.3 mm
05:50 PM 38.2°F3.4°C 31.0°F-0.6°C 75% 1.2 mph W1.9 kmh W 1.2 mph1.9 kmh 30.15 in1021.0 mb - 0.00 in0.0 mm 0.01 in0.3 mm
06:00 PM 38.2°F3.4°C 31.0°F-0.6°C 75% 3.5 mph WSW5.6 kmh WSW 9.2 mph14.8 kmh 30.16 in1021.3 mb - 0.00 in0.0 mm 0.01 in0.3 mm
06:10 PM 38.4°F3.6°C 31.2°F-0.4°C 75% 3.5 mph WNW5.6 kmh WNW 9.2 mph14.8 kmh 30.16 in1021.3 mb - 0.00 in0.0 mm 0.01 in0.3 mm
06:20 PM 38.5°F3.6°C 30.9°F-0.6°C 74% Calm Calm 5.8 mph9.3 kmh 30.16 in1021.3 mb - 0.00 in0.0 mm 0.01 in0.3 mm
06:30 PM 38.4°F3.6°C 31.2°F-0.4°C 75% 3.5 mph NW5.6 kmh NW 9.2 mph14.8 kmh 30.17 in1021.7 mb - 0.00 in0.0 mm 0.01 in0.3 mm
06:40 PM 38.4°F3.6°C 31.5°F-0.3°C 76% 1.2 mph WNW1.9 kmh WNW 5.8 mph9.3 kmh 30.17 in1021.7 mb - 0.00 in0.0 mm 0.01 in0.3 mm
06:50 PM 38.3°F3.5°C 31.7°F-0.2°C 77% Calm Calm 6.9 mph11.1 kmh 30.17 in1021.7 mb - 0.00 in0.0 mm 0.01 in0.3 mm
07:00 PM 38.5°F3.6°C 32.2°F0.1°C 78% 3.5 mph W5.6 kmh W 6.9 mph11.1 kmh 30.17 in1021.7 mb - 0.00 in0.0 mm 0.01 in0.3 mm
07:10 PM 38.6°F3.7°C 32.4°F0.2°C 78% 3.5 mph NW5.6 kmh NW 9.2 mph14.8 kmh 30.18 in1022.0 mb - 0.00 in0.0 mm 0.01 in0.3 mm
07:20 PM 38.5°F3.6°C 32.6°F0.3°C 79% 4.6 mph W7.4 kmh W 8.1 mph13.0 kmh 30.17 in1021.7 mb - 0.00 in0.0 mm 0.01 in0.3 mm
07:30 PM 38.3°F3.5°C 32.4°F0.2°C 79% 1.2 mph NW1.9 kmh NW 3.5 mph5.6 kmh 30.17 in1021.7 mb - 0.00 in0.0 mm 0.01 in0.3 mm
07:40 PM 38.2°F3.4°C 32.6°F0.3°C 80% 1.2 mph NW1.9 kmh NW 4.6 mph7.4 kmh 30.18 in1022.0 mb - 0.00 in0.0 mm 0.01 in0.3 mm
07:50 PM 38.3°F3.5°C 33.0°F0.6°C 81% 3.5 mph NW5.6 kmh NW 8.1 mph13.0 kmh 30.18 in1022.0 mb - 0.00 in0.0 mm 0.01 in0.3 mm
08:00 PM 38.3°F3.5°C 33.3°F0.7°C 82% 3.5 mph NNW5.6 kmh NNW 9.2 mph14.8 kmh 30.18 in1022.0 mb - 0.00 in0.0 mm 0.01 in0.3 mm
08:10 PM 38.1°F3.4°C 33.1°F0.6°C 82% 5.8 mph NW9.3 kmh NW 10.4 mph16.7 kmh 30.18 in1022.0 mb - 0.00 in0.0 mm 0.01 in0.3 mm
08:20 PM 37.9°F3.3°C 32.9°F0.5°C 82% 5.8 mph NNW9.3 kmh NNW 8.1 mph13.0 kmh 30.18 in1022.0 mb - 0.00 in0.0 mm 0.01 in0.3 mm
08:30 PM 38.0°F3.3°C 33.0°F0.6°C 82% 3.5 mph NW5.6 kmh NW 4.6 mph7.4 kmh 30.18 in1022.0 mb - 0.00 in0.0 mm 0.01 in0.3 mm
08:40 PM 37.8°F3.2°C 32.8°F0.4°C 82% 1.2 mph NNW1.9 kmh NNW 4.6 mph7.4 kmh 30.18 in1022.0 mb - 0.00 in0.0 mm 0.01 in0.3 mm
08:50 PM 37.6°F3.1°C 32.6°F0.3°C 82% 1.2 mph WNW1.9 kmh WNW 3.5 mph5.6 kmh 30.18 in1022.0 mb - 0.00 in0.0 mm 0.01 in0.3 mm
09:00 PM 37.4°F3.0°C 32.7°F0.4°C 83% 2.3 mph NW3.7 kmh NW 8.1 mph13.0 kmh 30.18 in1022.0 mb - 0.00 in0.0 mm 0.01 in0.3 mm
09:10 PM 37.3°F2.9°C 32.9°F0.5°C 84% 3.5 mph NNW5.6 kmh NNW 6.9 mph11.1 kmh 30.18 in1022.0 mb - 0.00 in0.0 mm 0.01 in0.3 mm
09:20 PM 37.1°F2.8°C 33.0°F0.6°C 85% 1.2 mph NW1.9 kmh NW 4.6 mph7.4 kmh 30.18 in1022.0 mb - 0.00 in0.0 mm 0.01 in0.3 mm
09:30 PM 37.1°F2.8°C 33.0°F0.6°C 85% 2.3 mph NW3.7 kmh NW 9.2 mph14.8 kmh 30.18 in1022.0 mb - 0.00 in0.0 mm 0.01 in0.3 mm
09:40 PM 37.0°F2.8°C 32.9°F0.5°C 85% Calm Calm 5.8 mph9.3 kmh 30.18 in1022.0 mb - 0.00 in0.0 mm 0.01 in0.3 mm
09:50 PM 36.8°F2.7°C 32.7°F0.4°C 85% 1.2 mph W1.9 kmh W 3.5 mph5.6 kmh 30.17 in1021.7 mb - 0.00 in0.0 mm 0.01 in0.3 mm
10:00 PM 36.6°F2.6°C 32.8°F0.4°C 86% Calm Calm -- 30.18 in1022.0 mb - 0.00 in0.0 mm 0.01 in0.3 mm
10:10 PM 36.6°F2.6°C 32.8°F0.4°C 86% 2.3 mph NW3.7 kmh NW 4.6 mph7.4 kmh 30.18 in1022.0 mb - 0.00 in0.0 mm 0.01 in0.3 mm
10:20 PM 36.7°F2.6°C 32.9°F0.5°C 86% Calm Calm 2.3 mph3.7 kmh 30.18 in1022.0 mb - 0.00 in0.0 mm 0.01 in0.3 mm
10:40 PM 36.5°F2.5°C 32.7°F0.4°C 86% Calm Calm -- 30.18 in1022.0 mb - 0.00 in0.0 mm 0.01 in0.3 mm
10:50 PM 36.4°F2.4°C 32.6°F0.3°C 86% 2.3 mph N3.7 kmh N 4.6 mph7.4 kmh 30.18 in1022.0 mb - 0.00 in0.0 mm 0.01 in0.3 mm
11:00 PM 36.2°F2.3°C 32.4°F0.2°C 86% Calm Calm -- 30.18 in1022.0 mb - 0.00 in0.0 mm 0.01 in0.3 mm
11:10 PM 36.0°F2.2°C 32.2°F0.1°C 86% Calm Calm -- 30.18 in1022.0 mb - 0.00 in0.0 mm 0.01 in0.3 mm
11:20 PM 35.7°F2.1°C 32.2°F0.1°C 87% 2.3 mph NW3.7 kmh NW 5.8 mph9.3 kmh 30.18 in1022.0 mb - 0.00 in0.0 mm 0.01 in0.3 mm
11:30 PM 35.6°F2.0°C 32.1°F0.1°C 87% Calm Calm 4.6 mph7.4 kmh 30.18 in1022.0 mb - 0.00 in0.0 mm 0.01 in0.3 mm
11:40 PM 35.7°F2.1°C 32.2°F0.1°C 87% Calm Calm -- 30.18 in1022.0 mb - 0.00 in0.0 mm 0.01 in0.3 mm
11:50 PM 35.7°F2.1°C 31.9°F-0.1°C 86% 1.2 mph WNW1.9 kmh WNW 4.6 mph7.4 kmh 30.18 in1022.0 mb - 0.00 in0.0 mm 0.01 in0.3 mm